• Join FlightAware (Why Join?)
  • Login
  • US Flag 
07:05AM EDT


 

Airport Tracker/Info


-or-


 

Live Flight TrackerFlight Track Log ✈ UAL33 ✈ 28-Jul-2013 ✈ KORD - KIAH

Flight Track Log - Related Links

Times and Time Zones

All times are in EDT time to prevent confusion due to time zone crossing. See the UAL33 flight status page for this flight to view local times or setup timezone preferences in your user account.

Time Position Orientation Groundspeed Altitude Reporting Facility
EDT Latitude Longitude Course Direction KTS MPH feet Rate Location/Type
09:54PM 41.9810 -87.9230 320° Northwest 141 162 600  Level FlightAware
09:54PM 41.9960 -87.9400 320° Northwest 158 182 1,500 2,100 Climbing FlightAware
09:54PM 42.0000 -87.9500 298° West 163 188 2,000 2,160 Climbing FlightAware
09:55PM 41.9910 -87.9770 246° West 205 236 3,000 2,280 Climbing FlightAware
09:55PM 41.9770 -87.9890 213° Southwest 229 264 3,700 2,400 Climbing FlightAware
09:55PM 41.9510 -88.0110 212° Southwest 262 302 4,700 1,800 Climbing FlightAware
09:56PM 41.9370 -88.0230 213° Southwest 267 307 4,900 420 Climbing FlightAware
09:56PM 41.9040 -88.0410 202° Southwest 276 318 5,000 60 Climbing FlightAware
09:57PM 41.8680 -88.0370 175° South 279 321 5,000 480 Level FlightAware
09:57PM 41.8330 -88.0320 174° South 281 323 5,500 2,400 Climbing FlightAware
09:57PM 41.7980 -88.0270 174° South 287 330 7,200 3,720 Climbing FlightAware
09:58PM 41.7540 -88.0270 180° South 298 343 9,100 3,420 Climbing FlightAware
09:59PM 41.6930 -88.0270 180° South 311 358 11,600 3,240 Climbing FlightAware
09:59PM 41.6320 -88.0280 181° South 339 390 13,700 900 Climbing FlightAware
10:01PM 41.4730 -88.0280 180° South 355 409 14,000 2,340 Climbing FlightAware
10:02PM 41.3310 -88.0550 188° South 448 516 20,000 5,400 Climbing FlightAware
10:03PM 41.2450 -88.0850 195° South 460 529 21,900 2,520 Climbing FlightAware
10:03PM 41.1520 -88.1120 192° South 481 554 23,600 2,220 Climbing FlightAware
10:04PM 41.0540 -88.1400 192° South 497 572 25,200 2,040 Climbing FlightAware
10:05PM 40.9640 -88.1650 192° South 510 587 26,500 2,040 Climbing FlightAware
10:06PM 40.8650 -88.1930 192° South 520 598 28,000 1,980 Climbing FlightAware
10:06PM 40.7670 -88.2210 192° South 529 609 29,300 1,800 Climbing FlightAware
10:07PM 40.6650 -88.2390 188° South 554 638 30,500 1,740 Climbing FlightAware
10:08PM 40.5580 -88.2350 178° South 557 641 31,800 2,040 Climbing FlightAware
10:08PM 40.4440 -88.2300 178° South 553 636 33,500 2,100 Climbing FlightAware
10:09PM 40.3350 -88.2260 178° South 552 635 34,800 1,620 Climbing FlightAware
10:10PM 40.2380 -88.2380 185° South 518 596 35,700 1,260 Climbing FlightAware
10:10PM 40.1630 -88.2990 212° Southwest 477 549 36,500 1,080 Climbing FlightAware
10:11PM 40.0990 -88.3840 225° Southwest 488 562 37,200 1,020 Climbing FlightAware
10:12PM 40.0250 -88.4560 217° Southwest 509 586 37,900 1,020 Climbing FlightAware
10:12PM 39.9520 -88.5120 210° Southwest 514 592 38,500 1,080 Climbing FlightAware
10:13PM 39.8670 -88.5750 210° Southwest 514 592 39,300 1,020 Climbing FlightAware
10:14PM 39.7880 -88.6350 210° Southwest 513 590 39,900 420 Climbing FlightAware
10:14PM 39.6870 -88.7110 210° Southwest 509 586 40,000 60 Climbing FlightAware
10:15PM 39.6070 -88.7710 210° Southwest 507 583 40,000  Level FlightAware
10:16PM 39.5250 -88.8310 209° Southwest 507 583 40,000  Level FlightAware
10:16PM 39.4370 -88.8970 210° Southwest 511 588 40,000  Level FlightAware
10:17PM 39.3560 -88.9570 210° Southwest 511 588 40,000  Level FlightAware
10:18PM 39.2580 -89.0300 210° Southwest 512 589 40,000  Level FlightAware
10:19PM 39.1780 -89.0890 210° Southwest 511 588 40,000  Level FlightAware
10:19PM 39.1040 -89.1430 210° Southwest 512 589 40,000  Level FlightAware
10:20PM 39.0040 -89.2170 210° Southwest 512 589 40,000  Level FlightAware
10:21PM 38.9240 -89.2750 209° Southwest 511 588 40,000  Level FlightAware
10:21PM 38.8420 -89.3350 210° Southwest 508 585 40,000  Level FlightAware
10:22PM 38.7560 -89.3980 210° Southwest 507 583 40,000  Level FlightAware
10:23PM 38.6620 -89.4650 209° Southwest 506 582 40,000  Level FlightAware
10:24PM 38.5760 -89.5280 210° Southwest 502 578 40,000  Level FlightAware
10:24PM 38.5030 -89.5800 209° Southwest 503 579 40,000  Level FlightAware
10:25PM 38.4210 -89.6400 210° Southwest 505 581 40,000  Level FlightAware
10:25PM 38.3320 -89.7030 209° Southwest 509 586 40,000  Level FlightAware
10:26PM 38.2710 -89.7460 209° Southwest 509 586 40,000  Level FlightAware
10:27PM 38.1780 -89.8130 210° Southwest 508 585 40,000  Level FlightAware
10:28PM 38.0850 -89.8790 209° Southwest 509 586 40,000  Level FlightAware
10:28PM 37.9790 -89.9550 209° Southwest 508 585 40,000  Level FlightAware
10:29PM 37.8880 -90.0190 209° Southwest 507 583 40,000  Level FlightAware
10:30PM 37.7790 -90.0950 209° Southwest 509 586 40,000  Level FlightAware
10:31PM 37.7200 -90.1370 209° Southwest 509 586 40,000  Level FlightAware
10:31PM 37.6570 -90.1810 209° Southwest 509 586 40,000  Level FlightAware
10:32PM 37.5730 -90.2400 209° Southwest 509 586 40,000  Level FlightAware
10:33PM 37.5100 -90.2840 209° Southwest 509 586 40,000  Level FlightAware
10:34PM 37.3420 -90.4000 209° Southwest 512 589 40,000  Level FlightAware
10:34PM 37.2520 -90.4640 210° Southwest 507 583 40,000  Level FlightAware
10:35PM 37.1720 -90.5190 209° Southwest 508 585 40,000  Level FlightAware
10:36PM 37.0740 -90.5860 209° Southwest 507 583 40,000  Level FlightAware
10:36PM 36.9930 -90.6420 209° Southwest 507 583 40,000  Level FlightAware
10:37PM 36.9030 -90.7040 209° Southwest 507 583 40,000  Level FlightAware
10:38PM 36.8180 -90.7600 208° Southwest 512 589 40,000  Level FlightAware
10:38PM 36.7160 -90.8080 201° Southwest 522 601 40,000  Level FlightAware
10:39PM 36.6240 -90.8460 198° South 523 602 40,000  Level FlightAware
10:40PM 36.5060 -90.8950 198° South 524 603 40,000  Level FlightAware
10:41PM 36.3960 -90.9400 198° South 526 605 40,000  Level FlightAware
10:41PM 36.3020 -90.9790 198° South 525 604 40,000  Level FlightAware
10:42PM 36.2110 -91.0160 198° South 525 604 40,000  Level FlightAware
10:43PM 36.1260 -91.0510 198° South 526 605 40,000  Level FlightAware
10:44PM 36.0110 -91.0970 198° South 527 606 40,000  Level FlightAware
10:44PM 35.9400 -91.1260 198° South 527 606 40,000  Level FlightAware
10:45PM 35.8110 -91.1790 198° South 527 606 40,000  Level FlightAware
10:46PM 35.7170 -91.2170 198° South 526 605 40,000  Level FlightAware
10:46PM 35.6170 -91.2570 198° South 526 605 40,000  Level FlightAware
10:47PM 35.4900 -91.3080 198° South 529 609 40,000  Level FlightAware
10:48PM 35.4060 -91.3420 198° South 530 610 40,000  Level FlightAware
10:49PM 35.3050 -91.3820 198° South 530 610 40,000  Level FlightAware
10:50PM 35.2100 -91.4200 198° South 530 610 40,000  Level FlightAware
10:50PM 35.1380 -91.4480 198° South 530 610 40,000  Level FlightAware
10:52PM 34.8990 -91.5430 198° South 530 610 40,000  Level FlightAware
10:52PM 34.8280 -91.5710 198° South 530 610 40,000  Level FlightAware
10:53PM 34.7370 -91.6070 198° South 530 610 40,000  Level FlightAware
10:54PM 34.6660 -91.6360 199° South 530 610 40,000  Level FlightAware
10:54PM 34.5920 -91.6650 198° South 530 610 40,000  Level FlightAware
10:55PM 34.4970 -91.7020 198° South 530 610 40,000  Level FlightAware
10:56PM 34.4260 -91.7300 198° South 530 610 40,000  Level FlightAware
10:56PM 34.3540 -91.7580 198° South 530 610 40,000  Level FlightAware
10:57PM 34.2590 -91.7960 198° South 530 610 40,000  Level FlightAware
10:58PM 34.1880 -91.8240 198° South 530 610 40,000  Level FlightAware
10:58PM 34.1140 -91.8530 198° South 530 610 40,000  Level FlightAware
10:59PM 33.9960 -91.8990 198° South 530 610 40,000  Level FlightAware
11:00PM 33.9240 -91.9270 198° South 530 610 40,000  Level FlightAware
11:01PM 33.8290 -91.9640 198° South 530 610 40,000  Level FlightAware
11:02PM 33.5014 -92.0931 198° South 525 604 40,000  Level Fort Worth Center
11:03PM 33.3658 -92.1458 198° South 525 604 40,000  Level Fort Worth Center
11:04PM 33.2242 -92.1989 197° South 531 611 40,000  Level Fort Worth Center
11:09PM 32.4110 -92.5121 197° South 527 606 40,000  Level FlightAware ADS-B
11:11PM 32.1828 -92.5983 198° South 528 608 40,000  Level FlightAware ADS-B
11:12PM 32.0760 -92.6385 198° South 529 609 40,000  Level FlightAware ADS-B
11:16PM 31.5986 -93.0396 216° Southwest 521 600 40,000  Level FlightAware ADS-B
11:16PM 31.5316 -93.1041 219° Southwest 521 600 40,000  Level FlightAware ADS-B
11:17PM 31.4451 -93.1872 219° Southwest 522 601 40,000  Level FlightAware ADS-B
11:18PM 31.3887 -93.2412 219° Southwest 522 601 40,000 -120 Level FlightAware ADS-B
11:18PM 31.3316 -93.2957 219° Southwest 520 598 39,900 -1,140 Descending FlightAware ADS-B
11:19PM 31.2653 -93.3590 219° Southwest 517 595 38,800 -2,040 Descending FlightAware ADS-B
11:19PM 31.2096 -93.4123 219° Southwest 515 593 37,700 -2,280 Descending FlightAware ADS-B
11:20PM 31.1539 -93.4651 219° Southwest 513 590 36,500 -2,400 Descending FlightAware ADS-B
11:20PM 31.0980 -93.5182 219° Southwest 512 589 35,300 -2,460 Descending FlightAware ADS-B
11:21PM 31.0414 -93.5718 219° Southwest 512 589 34,000 -2,760 Descending FlightAware ADS-B
11:21PM 30.9844 -93.6256 219° Southwest 511 588 32,500 -3,000 Descending FlightAware ADS-B
11:22PM 30.9292 -93.6777 219° Southwest 513 590 31,000 -3,240 Descending FlightAware ADS-B
11:22PM 30.8733 -93.7307 219° Southwest 517 595 29,300 -3,000 Descending FlightAware ADS-B
11:23PM 30.8173 -93.7835 219° Southwest 517 595 28,000 -2,580 Descending FlightAware ADS-B
11:23PM 30.7611 -93.8364 219° Southwest 509 586 26,700 -2,700 Descending FlightAware ADS-B
11:24PM 30.7067 -93.8877 219° Southwest 500 575 25,300 -2,700 Descending FlightAware ADS-B
11:24PM 30.6530 -93.9383 219° Southwest 490 564 24,000 -2,640 Descending FlightAware ADS-B
11:25PM 30.5998 -93.9880 219° Southwest 482 555 22,700 -2,700 Descending FlightAware ADS-B
11:25PM 30.5477 -94.0363 219° Southwest 471 542 21,300 -2,700 Descending FlightAware ADS-B
11:26PM 30.4970 -94.0839 219° Southwest 463 533 20,000 -2,700 Descending FlightAware ADS-B
11:26PM 30.4474 -94.1302 219° Southwest 455 524 18,600 -2,640 Descending FlightAware ADS-B
11:27PM 30.3983 -94.1760 219° Southwest 447 514 17,400 -2,640 Descending FlightAware ADS-B
11:27PM 30.3534 -94.2180 219° Southwest 438 504 16,100 -2,640 Descending FlightAware ADS-B
11:28PM 30.3400 -94.2323 223° Southwest 435 501 15,800 -2,340 Descending FlightAware ADS-B
11:28PM 30.3271 -94.2481 227° Southwest 430 495 15,400 -2,520 Descending FlightAware ADS-B
11:28PM 30.3175 -94.2615 230° Southwest 426 490 15,100 -2,280 Descending FlightAware ADS-B
11:28PM 30.2947 -94.3008 238° Southwest 417 480 14,300 -2,280 Descending FlightAware ADS-B
11:29PM 30.2390 -94.4149 240° Southwest 396 456 12,100 -1,500 Descending FlightAware ADS-B
11:31PM 30.1640 -94.5680 240° Southwest 330 380 10,600 -1,020 Descending FlightAware ADS-B
11:31PM 30.1420 -94.6128 240° Southwest 310 357 10,100 -1,020 Descending FlightAware ADS-B
11:32PM 30.1215 -94.6549 241° Southwest 294 338 9,600 -1,140 Descending FlightAware ADS-B
11:32PM 30.1015 -94.6955 240° Southwest 290 334 9,000 -1,140 Descending FlightAware ADS-B
11:34PM 30.0315 -94.8374 240° Southwest 284 327 7,000 -1,140 Descending FlightAware ADS-B
11:34PM 30.0223 -94.8561 240° Southwest 282 325 6,800 -1,020 Descending FlightAware ADS-B
11:34PM 30.0199 -94.8613 242° Southwest 281 323 6,700 -1,500 Descending FlightAware ADS-B
11:34PM 30.0179 -94.8662 245° Southwest 281 323 6,600 -900 Descending FlightAware ADS-B
11:34PM 30.0162 -94.8710 248° West 281 323 6,600 -900 Level FlightAware ADS-B
11:34PM 30.0145 -94.8766 251° West 281 323 6,500 -1,440 Descending FlightAware ADS-B
11:35PM 30.0116 -94.8900 257° West 280 322 6,300 -1,380 Descending FlightAware ADS-B
11:35PM 30.0100 -94.9029 264° West 279 321 6,100 -1,440 Descending FlightAware ADS-B
11:35PM 30.0090 -94.9213 266° West 276 318 5,800 -1,740 Descending FlightAware ADS-B
11:35PM 30.0073 -94.9445 265° West 271 312 5,300 -1,920 Descending FlightAware ADS-B
11:35PM 30.0060 -94.9624 265° West 267 307 4,900 -1,500 Descending FlightAware ADS-B
11:36PM 30.0045 -94.9836 265° West 255 293 4,600 -1,380 Descending FlightAware ADS-B
11:36PM 30.0016 -95.0224 265° West 235 270 3,900 -1,260 Descending FlightAware ADS-B
11:36PM 30.0004 -95.0384 265° West 225 259 3,700 -840 Descending FlightAware ADS-B
11:37PM 29.9991 -95.0562 265° West 216 249 3,500 -660 Descending FlightAware ADS-B
11:37PM 29.9967 -95.0897 265° West 201 231 3,200 -540 Descending FlightAware ADS-B
11:37PM 29.9955 -95.1060 265° West 198 228 3,100 -420 Descending FlightAware ADS-B
11:38PM 29.9943 -95.1215 265° West 197 227 3,000 -300 Descending FlightAware ADS-B
11:38PM 29.9937 -95.1296 265° West 191 220 3,000  Level FlightAware ADS-B
11:38PM 29.9935 -95.1359 268° West 189 217 3,000 -780 Level FlightAware ADS-B
11:39PM 29.9935 -95.1877 270° West 189 217 2,300 -840 Descending FlightAware ADS-B
11:39PM 29.9935 -95.2081 270° West 186 214 2,000 -1,020 Descending FlightAware ADS-B
11:39PM 29.9935 -95.2232 270° West 176 203 1,700 -1,020 Descending FlightAware ADS-B
11:40PM 29.9935 -95.2307 270° West 168 193 1,600 -840 Descending FlightAware ADS-B
11:40PM 29.9935 -95.2434 270° West 152 175 1,400 -780 Descending FlightAware ADS-B
11:40PM 29.9935 -95.2502 270° West 145 167 1,300 -600 Descending FlightAware ADS-B
11:40PM 29.9934 -95.2586 269° West 142 163 1,200 -720 Descending FlightAware ADS-B
11:40PM 29.9934 -95.2695 270° West 143 165 1,000 -900 Descending FlightAware ADS-B
11:41PM 29.9935 -95.2793 271° West 143 165 800 -840 Descending FlightAware ADS-B
11:41PM 29.9935 -95.2871 270° West 143 165 700 -720 Descending FlightAware ADS-B
11:41PM 29.9934 -95.2989 269° West 143 165 500 -780 Descending FlightAware ADS-B
11:41PM 29.9935 -95.3124 270° West 145 167 300 -840 Descending FlightAware ADS-B
11:41PM 29.9935 -95.3169 270° West 146 168 200  Descending FlightAware ADS-B
11:42PM 29.9935 -95.3286 270° West 144 166 120 Descending FlightAware ADS-B
11:42PM 29.9944 -95.3481 270° West 160 184 300 480 Climbing Houston Center